Time;durP1;ratioP1;P1;durP2;ratioP2;P2;SDS_P1;SDS_P2;PMS_P1;PMS_P2;Temp;Humidity;BMP_temperature;BMP_pressure;BME280_temperature;BME280_humidity;BME280_pressure;Samples;Min_cycle;Max_cycle;Signal;HPM_P1;HPM_P2
2023/01/03 00:01:37;;;;;;;;;;;;;;;5.14;100.00;101695.78;6245301;22;20506;-78
2023/01/03 00:04:04;;;;;;;;;;;;;;;5.12;100.00;101693.13;6220621;22;19911;-78
2023/01/03 00:06:36;;;;;;;;;;;;;;;5.16;100.00;101701.88;6246522;22;19911;-77
2023/01/03 00:09:08;;;;;;;;;;;;;;;5.22;100.00;101699.47;6273803;22;19919;-78
2023/01/03 00:14:22;;;;;;;;;;;;;;;5.44;100.00;101708.78;6248990;22;19918;-78
2023/01/03 00:16:51;;;;;;;;;;;;;;;5.55;100.00;101708.22;6243969;22;19915;-78
2023/01/03 00:19:18;;;;;;;;;;;;;;;5.61;100.00;101716.19;6244550;22;19915;-77
2023/01/03 00:21:44;;;;;;;;;;;;;;;5.59;100.00;101721.34;6244373;22;19911;-79
2023/01/03 00:24:11;;;;;;;;;;;;;;;5.57;100.00;101720.41;6247048;22;19914;-78
2023/01/03 00:26:39;;;;;;;;;;;;;;;5.51;100.00;101722.81;6245333;22;19984;-79
2023/01/03 00:29:05;;;;;;;;;;;;;;;5.49;100.00;101723.59;6220389;22;19918;-78
2023/01/03 00:31:31;;;;;;;;;;;;;;;5.46;100.00;101724.41;6243073;22;19915;-78
2023/01/03 00:33:58;;;;;;;;;;;;;;;5.37;100.00;101727.63;6217346;22;19981;-79
2023/01/03 00:36:25;;;;;;;;;;;;;;;5.29;100.00;101732.59;6243681;22;19926;-78
2023/01/03 00:38:51;;;;;;;;;;;;;;;5.20;100.00;101737.50;6219242;22;19921;-78
2023/01/03 00:41:19;;;;;;;;;;;;;;;5.14;100.00;101735.56;6245164;22;19915;-77
2023/01/03 00:43:49;;;;;;;;;;;;;;;5.05;100.00;101747.41;6244175;22;19939;-77
2023/01/03 00:46:17;;;;;;;;;;;;;;;4.95;100.00;101741.94;6244456;22;20226;-79
2023/01/03 00:48:44;;;;;;;;;;;;;;;4.87;100.00;101737.31;6220929;22;19922;-77
2023/01/03 00:51:12;;;;;;;;;;;;;;;4.77;100.00;101733.53;6245874;22;19911;-79
2023/01/03 00:53:40;;;;;;;;;;;;;;;4.70;100.00;101748.03;6244537;22;20366;-77
2023/01/03 00:56:11;;;;;;;;;;;;;;;4.59;100.00;101744.22;6245974;22;19981;-80
2023/01/03 00:58:38;;;;;;;;;;;;;;;4.60;100.00;101748.53;6272500;22;20231;-77
2023/01/03 01:01:09;;;;;;;;;;;;;;;4.63;100.00;101744.34;6246724;22;20307;-78
2023/01/03 01:03:38;;;;;;;;;;;;;;;4.57;100.00;101746.72;6244328;22;19919;-77
2023/01/03 01:06:23;;;;;;;;;;;;;;;4.52;100.00;101748.28;6247931;22;20365;-78
2023/01/03 01:08:50;;;;;;;;;;;;;;;4.45;100.00;101756.72;6250332;22;19911;-77
2023/01/03 01:11:17;;;;;;;;;;;;;;;4.47;100.00;101765.41;6249192;22;19918;-77
2023/01/03 01:13:45;;;;;;;;;;;;;;;4.42;100.00;101764.34;6249494;22;19983;-77
2023/01/03 01:16:14;;;;;;;;;;;;;;;4.37;100.00;101760.72;6223895;22;19911;-77
2023/01/03 01:18:43;;;;;;;;;;;;;;;4.25;100.00;101759.50;6248669;22;19942;-78
2023/01/03 01:21:12;;;;;;;;;;;;;;;4.19;100.00;101768.78;6221765;22;19911;-79
2023/01/03 01:23:40;;;;;;;;;;;;;;;4.15;100.00;101772.97;6218436;22;20621;-79
2023/01/03 01:26:07;;;;;;;;;;;;;;;4.15;100.00;101778.16;6244892;22;19922;-77
2023/01/03 01:28:37;;;;;;;;;;;;;;;4.12;100.00;101789.28;6245763;22;19915;-78
2023/01/03 01:31:05;;;;;;;;;;;;;;;4.14;100.00;101800.56;6245259;22;19915;-77
2023/01/03 01:33:33;;;;;;;;;;;;;;;4.09;100.00;101801.22;6270306;22;19915;-77
2023/01/03 01:36:06;;;;;;;;;;;;;;;4.09;100.00;101802.13;6219149;22;19911;-77
2023/01/03 01:38:32;;;;;;;;;;;;;;;4.04;100.00;101810.56;6243971;22;19915;-78
2023/01/03 01:40:59;;;;;;;;;;;;;;;4.03;100.00;101807.09;6245644;22;20307;-77
2023/01/03 01:46:28;;;;;;;;;;;;;;;4.14;100.00;101817.84;6251975;22;19907;-80
2023/01/03 01:49:03;;;;;;;;;;;;;;;4.11;100.00;101822.91;6247567;22;20233;-79
2023/01/03 01:51:33;;;;;;;;;;;;;;;4.11;100.00;101826.38;6223406;22;19911;-79
2023/01/03 01:54:02;;;;;;;;;;;;;;;4.03;100.00;101824.31;6248351;22;19935;-77
2023/01/03 01:56:39;;;;;;;;;;;;;;;4.03;100.00;101824.31;6247050;22;19911;-78
2023/01/03 01:59:07;;;;;;;;;;;;;;;3.94;100.00;101836.13;6247740;22;20432;-78
2023/01/03 02:01:34;;;;;;;;;;;;;;;3.86;100.00;101834.97;6246174;22;20187;-80
2023/01/03 02:04:16;;;;;;;;;;;;;;;3.86;100.00;101837.56;6245716;22;19961;-77
2023/01/03 02:06:43;;;;;;;;;;;;;;;3.80;100.00;101839.91;6246365;22;19911;-77
2023/01/03 02:09:09;;;;;;;;;;;;;;;3.77;100.00;101843.25;6220727;22;19921;-78
2023/01/03 02:11:50;;;;;;;;;;;;;;;3.83;100.00;101842.59;6244987;22;19914;-77
2023/01/03 02:14:41;;;;;;;;;;;;;;;3.74;100.00;101844.84;6246181;22;19986;-77
2023/01/03 02:17:16;;;;;;;;;;;;;;;3.66;100.00;101848.84;6246489;22;19922;-77
2023/01/03 02:19:58;;;;;;;;;;;;;;;3.63;100.00;101858.25;6246133;22;20474;-78
2023/01/03 02:22:51;;;;;;;;;;;;;;;3.63;100.00;101865.16;6245756;22;19915;-77
2023/01/03 02:25:46;;;;;;;;;;;;;;;3.61;100.00;101864.19;6246798;22;19919;-78
2023/01/03 02:28:45;;;;;;;;;;;;;;;3.55;100.00;101872.63;6245676;22;19918;-78
2023/01/03 02:31:23;;;;;;;;;;;;;;;3.50;100.00;101870.69;6220164;22;20321;-79
2023/01/03 02:34:05;;;;;;;;;;;;;;;3.50;100.00;101876.72;6244226;22;19937;-78
2023/01/03 02:36:45;;;;;;;;;;;;;;;3.50;100.00;101865.50;6219696;22;19922;-78
2023/01/03 02:39:24;;;;;;;;;;;;;;;3.53;100.00;101871.66;6220289;22;20311;-78
2023/01/03 02:44:45;;;;;;;;;;;;;;;3.67;100.00;101868.75;6246986;22;20208;-78
2023/01/03 02:47:14;;;;;;;;;;;;;;;3.74;100.00;101865.56;6244774;22;19915;-78
2023/01/03 02:49:51;;;;;;;;;;;;;;;3.77;100.00;101863.97;6219710;22;19915;-81
2023/01/03 02:52:20;;;;;;;;;;;;;;;3.75;100.00;101864.75;6243983;22;20797;-78
2023/01/03 02:54:53;;;;;;;;;;;;;;;3.72;100.00;101867.22;6246171;22;19961;-78
2023/01/03 02:57:25;;;;;;;;;;;;;;;3.72;100.00;101857.75;6244886;22;19918;-77
2023/01/03 02:59:55;;;;;;;;;;;;;;;3.73;100.00;101863.78;6246085;22;19915;-79
2023/01/03 03:02:23;;;;;;;;;;;;;;;3.82;100.00;101866.75;6245660;22;19915;-77
2023/01/03 03:04:52;;;;;;;;;;;;;;;4.00;100.00;101861.38;6249852;22;19911;-78
2023/01/03 03:07:24;;;;;;;;;;;;;;;4.19;100.00;101864.66;6256755;22;19986;-77
2023/01/03 03:15:23;;;;;;;;;;;;;;;4.67;100.00;101864.66;6253568;22;19969;-79
2023/01/03 03:17:52;;;;;;;;;;;;;;;4.75;100.00;101865.78;6246988;22;19916;-78
2023/01/03 03:25:56;;;;;;;;;;;;;;;4.60;100.00;101870.44;6248168;22;19986;-78
2023/01/03 03:28:36;;;;;;;;;;;;;;;4.41;100.00;101862.00;6242309;22;20365;-78
2023/01/03 03:31:11;;;;;;;;;;;;;;;4.25;100.00;101863.19;6245581;22;19915;-77
2023/01/03 03:33:50;;;;;;;;;;;;;;;4.15;100.00;101861.06;6242903;22;19950;-78
2023/01/03 03:36:35;;;;;;;;;;;;;;;4.06;100.00;101863.31;6244999;22;19915;-77
2023/01/03 03:39:02;;;;;;;;;;;;;;;4.02;100.00;101864.03;6218333;22;20381;-78
2023/01/03 03:47:38;;;;;;;;;;;;;;;4.10;100.00;101862.63;6249903;22;20159;-77
2023/01/03 03:50:11;;;;;;;;;;;;;;;4.14;100.00;101869.66;6219435;22;19946;-77
2023/01/03 03:52:38;;;;;;;;;;;;;;;4.05;100.00;101870.19;6219424;22;19914;-78
2023/01/03 03:55:13;;;;;;;;;;;;;;;4.02;100.00;101867.50;6246276;22;20261;-78
2023/01/03 03:57:46;;;;;;;;;;;;;;;3.96;100.00;101863.00;6221859;22;20219;-77
2023/01/03 04:00:17;;;;;;;;;;;;;;;3.96;100.00;101868.16;6247182;22;19930;-80
2023/01/03 04:02:46;;;;;;;;;;;;;;;3.96;100.00;101869.84;6246248;22;19911;-77
2023/01/03 04:05:15;;;;;;;;;;;;;;;3.89;100.00;101873.94;6195978;22;19984;-77
2023/01/03 04:07:42;;;;;;;;;;;;;;;3.85;100.00;101872.06;6247055;22;20492;-78
2023/01/03 04:10:09;;;;;;;;;;;;;;;3.82;100.00;101874.53;6246719;22;20238;-78
2023/01/03 04:12:35;;;;;;;;;;;;;;;3.73;100.00;101876.75;6245095;22;19915;-80
2023/01/03 04:15:02;;;;;;;;;;;;;;;3.68;100.00;101870.50;6244770;22;19911;-78
2023/01/03 04:17:29;;;;;;;;;;;;;;;3.62;100.00;101878.91;6219283;22;19915;-78
2023/01/03 04:19:55;;;;;;;;;;;;;;;3.61;100.00;101882.31;6244312;22;19915;-78
2023/01/03 04:22:22;;;;;;;;;;;;;;;3.64;100.00;101874.69;6244330;22;19998;-78
2023/01/03 04:24:48;;;;;;;;;;;;;;;3.62;100.00;101876.34;6220723;22;20465;-77
2023/01/03 04:27:15;;;;;;;;;;;;;;;3.62;100.00;101873.75;6220425;22;19943;-77
2023/01/03 04:29:41;;;;;;;;;;;;;;;3.62;100.00;101871.16;6246089;22;20532;-77
2023/01/03 04:32:08;;;;;;;;;;;;;;;3.64;100.00;101872.97;6244554;22;20393;-77
2023/01/03 04:34:35;;;;;;;;;;;;;;;3.59;100.00;101874.50;6244155;22;19915;-77
2023/01/03 04:37:01;;;;;;;;;;;;;;;3.59;100.00;101879.69;6245576;22;19915;-79
2023/01/03 04:39:28;;;;;;;;;;;;;;;3.61;100.00;101882.31;6248050;22;20226;-80
2023/01/03 04:41:54;;;;;;;;;;;;;;;3.59;100.00;101881.41;6246175;22;20127;-79
2023/01/03 04:44:20;;;;;;;;;;;;;;;3.63;100.00;101885.88;6246945;22;19938;-77
2023/01/03 04:46:46;;;;;;;;;;;;;;;3.67;100.00;101885.16;6220179;22;19943;-77
2023/01/03 04:49:13;;;;;;;;;;;;;;;3.75;100.00;101886.34;6245037;22;19911;-78
2023/01/03 04:51:39;;;;;;;;;;;;;;;3.89;100.00;101883.41;6218515;22;19968;-78
2023/01/03 04:54:06;;;;;;;;;;;;;;;3.98;100.00;101887.22;6245133;22;19915;-79
2023/01/03 04:56:35;;;;;;;;;;;;;;;4.04;100.00;101890.88;6244684;22;19935;-78
2023/01/03 04:59:01;;;;;;;;;;;;;;;3.95;100.00;101899.16;6220322;22;19915;-78
2023/01/03 05:01:28;;;;;;;;;;;;;;;3.86;100.00;101897.13;6245952;22;19912;-79
2023/01/03 05:04:02;;;;;;;;;;;;;;;3.77;100.00;101896.78;6245907;22;20315;-78
2023/01/03 05:06:28;;;;;;;;;;;;;;;3.72;100.00;101900.91;6219003;22;19922;-78
2023/01/03 05:08:55;;;;;;;;;;;;;;;3.64;100.00;101898.88;6218739;22;20318;-77
2023/01/03 05:11:21;;;;;;;;;;;;;;;3.62;100.00;101910.00;6243460;22;19915;-80
2023/01/03 05:13:54;;;;;;;;;;;;;;;3.76;100.00;101914.00;6218992;22;19911;-78
2023/01/03 05:16:20;;;;;;;;;;;;;;;3.95;100.00;101914.72;6220374;22;20001;-79
2023/01/03 05:18:48;;;;;;;;;;;;;;;4.12;100.00;101911.09;6228028;22;19966;-78
2023/01/03 05:26:51;;;;;;;;;;;;;;;4.64;100.00;101911.22;6252811;22;19911;-78
2023/01/03 05:29:21;;;;;;;;;;;;;;;4.74;100.00;101918.50;6253361;22;19911;-77
2023/01/03 05:31:48;;;;;;;;;;;;;;;4.84;100.00;101921.41;6253087;22;19915;-78
2023/01/03 05:36:55;;;;;;;;;;;;;;;4.96;100.00;101922.72;6254476;22;20010;-76
2023/01/03 05:39:22;;;;;;;;;;;;;;;4.97;100.00;101921.03;6231045;22;19915;-77
2023/01/03 05:42:01;;;;;;;;;;;;;;;4.96;100.00;101927.03;6255273;22;19915;-77
2023/01/03 05:44:32;;;;;;;;;;;;;;;5.00;100.00;101928.91;6263261;22;19958;-79
2023/01/03 05:47:00;;;;;;;;;;;;;;;5.05;100.00;101927.34;6260965;22;19930;-78
2023/01/03 05:49:26;;;;;;;;;;;;;;;5.11;100.00;101929.25;6235138;22;19915;-76
2023/01/03 05:51:53;;;;;;;;;;;;;;;5.17;100.00;101933.81;6255196;22;19911;-77
2023/01/03 05:54:24;;;;;;;;;;;;;;;5.18;100.00;101930.38;6255006;22;19934;-81
2023/01/03 05:56:57;;;;;;;;;;;;;;;5.17;100.00;101936.41;6252549;22;20332;-78
2023/01/03 05:59:27;;;;;;;;;;;;;;;5.10;100.00;101933.59;6227689;22;19911;-78
2023/01/03 06:01:55;;;;;;;;;;;;;;;5.03;100.00;101943.69;6226096;22;20371;-77
2023/01/03 06:04:21;;;;;;;;;;;;;;;4.99;100.00;101947.91;6252672;22;19922;-78
2023/01/03 06:06:48;;;;;;;;;;;;;;;5.00;100.00;101956.59;6224843;22;20196;-78
2023/01/03 06:09:14;;;;;;;;;;;;;;;4.98;100.00;101948.75;6225256;22;19972;-78
2023/01/03 06:11:41;;;;;;;;;;;;;;;4.89;100.00;101945.81;6250800;22;19919;-77
2023/01/03 06:14:07;;;;;;;;;;;;;;;4.79;100.00;101952.41;6224875;22;19997;-78
2023/01/03 06:19:32;;;;;;;;;;;;;;;4.51;100.00;101955.69;6254024;22;19941;-79
2023/01/03 06:21:59;;;;;;;;;;;;;;;4.34;100.00;101953.38;6249774;22;20618;-77
2023/01/03 06:24:27;;;;;;;;;;;;;;;4.24;100.00;101952.13;6249181;22;19915;-78
2023/01/03 06:26:53;;;;;;;;;;;;;;;4.20;100.00;101960.63;6251071;22;19911;-78
2023/01/03 06:29:19;;;;;;;;;;;;;;;4.22;100.00;101966.72;6228757;22;19926;-77
2023/01/03 06:31:48;;;;;;;;;;;;;;;4.27;100.00;101961.72;6223783;22;19919;-78
2023/01/03 06:34:15;;;;;;;;;;;;;;;4.28;100.00;101968.69;6224161;22;19915;-78
2023/01/03 06:36:41;;;;;;;;;;;;;;;4.23;100.00;101971.09;6247699;22;20341;-78
2023/01/03 06:39:08;;;;;;;;;;;;;;;4.24;100.00;101974.59;6222470;22;19946;-78
2023/01/03 06:41:37;;;;;;;;;;;;;;;4.25;100.00;101977.22;6222337;22;19944;-81
2023/01/03 06:44:04;;;;;;;;;;;;;;;4.28;100.00;101979.94;6247985;22;19911;-77
2023/01/03 06:54:45;;;;;;;;;;;;;;;4.12;100.00;101980.19;6226353;22;19951;-79
2023/01/03 06:57:12;;;;;;;;;;;;;;;3.99;100.00;101978.81;6222156;22;20086;-78
2023/01/03 06:59:38;;;;;;;;;;;;;;;3.87;100.00;101987.00;6246658;22;19942;-78
2023/01/03 07:02:05;;;;;;;;;;;;;;;3.78;100.00;101984.91;6221093;22;19938;-78
2023/01/03 07:04:32;;;;;;;;;;;;;;;3.71;100.00;101994.94;6225967;22;19911;-79
2023/01/03 07:06:58;;;;;;;;;;;;;;;3.64;100.00;102005.03;6225091;22;19933;-77
2023/01/03 07:09:26;;;;;;;;;;;;;;;3.57;100.00;102007.31;6276932;22;19911;-77
2023/01/03 07:15:03;;;;;;;;;;;;;;;3.72;100.00;102017.44;6276149;22;19914;-77
2023/01/03 07:17:30;;;;;;;;;;;;;;;3.78;100.00;102015.06;6249117;22;20059;-77
2023/01/03 07:19:56;;;;;;;;;;;;;;;3.94;100.00;102024.38;6248940;22;19919;-78
2023/01/03 07:22:22;;;;;;;;;;;;;;;4.08;100.00;102019.72;6223744;22;19911;-76
2023/01/03 07:24:49;;;;;;;;;;;;;;;4.25;100.00;102021.28;6223975;22;19993;-80
2023/01/03 07:27:15;;;;;;;;;;;;;;;4.39;100.00;102024.41;6225001;22;19910;-78
2023/01/03 07:29:42;;;;;;;;;;;;;;;4.49;100.00;102028.25;6251286;22;19989;-77
2023/01/03 07:32:08;;;;;;;;;;;;;;;4.55;100.00;102025.00;6249997;22;19986;-78
2023/01/03 07:34:35;;;;;;;;;;;;;;;4.63;100.00;102036.56;6224181;22;19915;-80
2023/01/03 07:37:01;;;;;;;;;;;;;;;4.63;100.00;102034.84;6247983;22;19917;-77
2023/01/03 07:39:28;;;;;;;;;;;;;;;4.58;100.00;102032.91;6248410;22;19943;-81
2023/01/03 07:44:38;;;;;;;;;;;;;;;4.29;100.00;102041.31;6227864;22;19956;-79
2023/01/03 07:47:04;;;;;;;;;;;;;;;4.18;100.00;102036.53;6258525;22;19923;-77
2023/01/03 07:49:31;;;;;;;;;;;;;;;4.09;100.00;102047.41;6241624;22;19972;-78
2023/01/03 07:51:57;;;;;;;;;;;;;;;4.03;100.00;102042.88;6238238;22;19911;-77
2023/01/03 07:54:24;;;;;;;;;;;;;;;3.97;100.00;102050.41;6285578;22;19911;-79
2023/01/03 07:56:50;;;;;;;;;;;;;;;3.90;100.00;102054.44;6227072;22;19969;-79
2023/01/03 07:59:17;;;;;;;;;;;;;;;3.89;100.00;102057.84;6248119;22;19922;-77
2023/01/03 08:02:01;;;;;;;;;;;;;;;3.93;100.00;102058.88;6223249;22;19997;-79
2023/01/03 08:04:27;;;;;;;;;;;;;;;3.95;100.00;102062.41;6224021;22;19977;-77
2023/01/03 08:06:54;;;;;;;;;;;;;;;3.89;100.00;102062.16;6223167;22;19951;-77
2023/01/03 08:14:49;;;;;;;;;;;;;;;3.83;100.00;102051.53;6231822;22;20017;-76
2023/01/03 08:17:15;;;;;;;;;;;;;;;3.79;100.00;102056.59;6248062;22;19911;-78
2023/01/03 08:19:42;;;;;;;;;;;;;;;3.77;100.00;102049.59;6247325;22;19911;-79
2023/01/03 08:22:08;;;;;;;;;;;;;;;3.77;100.00;102060.84;6246197;22;19914;-79
2023/01/03 08:24:35;;;;;;;;;;;;;;;3.82;100.00;102055.84;6221437;22;19915;-78
2023/01/03 08:27:03;;;;;;;;;;;;;;;3.84;100.00;102055.91;6272379;22;19945;-79
2023/01/03 08:29:30;;;;;;;;;;;;;;;3.86;100.00;102060.34;6245012;22;19918;-78
2023/01/03 08:31:58;;;;;;;;;;;;;;;3.86;100.00;102062.03;6221164;22;19926;-78
2023/01/03 08:34:26;;;;;;;;;;;;;;;3.83;100.00;102067.09;6246888;22;19922;-78
2023/01/03 08:36:56;;;;;;;;;;;;;;;3.83;100.00;102067.09;6247769;22;20010;-77
2023/01/03 08:39:26;;;;;;;;;;;;;;;3.86;100.00;102065.50;6248596;22;19922;-79
2023/01/03 08:41:57;;;;;;;;;;;;;;;3.89;100.00;102064.75;6221517;22;19911;-78
2023/01/03 08:44:25;;;;;;;;;;;;;;;3.93;100.00;102072.69;6221481;22;19990;-78
2023/01/03 08:46:54;;;;;;;;;;;;;;;3.95;100.00;102071.06;6246884;22;20311;-78
2023/01/03 08:49:21;;;;;;;;;;;;;;;3.96;100.00;102072.84;6220938;22;20509;-77
2023/01/03 08:51:50;;;;;;;;;;;;;;;4.02;100.00;102074.78;6243943;22;19981;-77
2023/01/03 08:54:16;;;;;;;;;;;;;;;4.05;100.00;102079.22;6220056;22;19944;-78
2023/01/03 08:56:43;;;;;;;;;;;;;;;4.09;100.00;102082.00;6245027;22;20332;-79
2023/01/03 08:59:10;;;;;;;;;;;;;;;4.14;100.00;102093.41;6219364;22;19961;-77
2023/01/03 09:01:36;;;;;;;;;;;;;;;4.13;100.00;102095.94;6272360;22;19939;-78
2023/01/03 09:04:04;;;;;;;;;;;;;;;4.10;100.00;102096.72;6270701;22;19940;-78
2023/01/03 09:06:30;;;;;;;;;;;;;;;4.10;100.00;102098.44;6218736;22;19949;-77
2023/01/03 09:08:57;;;;;;;;;;;;;;;4.07;100.00;102101.78;6219523;22;19915;-78
2023/01/03 09:11:24;;;;;;;;;;;;;;;4.09;100.00;102097.56;6244063;22;19915;-79
2023/01/03 09:13:50;;;;;;;;;;;;;;;4.10;100.00;102088.94;6244422;22;19922;-77
2023/01/03 09:16:17;;;;;;;;;;;;;;;4.13;100.00;102103.72;6218338;22;19911;-76
2023/01/03 09:18:44;;;;;;;;;;;;;;;4.19;100.00;102108.31;6240741;22;19998;-77
2023/01/03 09:21:11;;;;;;;;;;;;;;;4.22;100.00;102111.88;6218827;22;19915;-77
2023/01/03 09:23:37;;;;;;;;;;;;;;;4.30;100.00;102118.28;6218755;22;19922;-78
2023/01/03 09:26:04;;;;;;;;;;;;;;;4.36;100.00;102121.94;6245118;22;19965;-78
2023/01/03 09:28:30;;;;;;;;;;;;;;;4.38;100.00;102126.38;6245294;22;19915;-77
2023/01/03 09:31:06;;;;;;;;;;;;;;;4.39;100.00;102132.41;6245371;22;20337;-78
2023/01/03 09:33:33;;;;;;;;;;;;;;;4.42;100.00;102122.16;6245921;22;19938;-79
2023/01/03 09:35:59;;;;;;;;;;;;;;;4.46;100.00;102121.50;6246553;22;19922;-78
2023/01/03 09:38:26;;;;;;;;;;;;;;;4.44;100.00;102120.53;6245031;22;19915;-81
2023/01/03 09:40:59;;;;;;;;;;;;;;;4.57;100.00;102125.38;6243759;22;19916;-79
2023/01/03 09:43:32;;;;;;;;;;;;;;;4.57;100.00;102127.09;6219583;22;19997;-78
2023/01/03 09:46:00;;;;;;;;;;;;;;;4.57;100.00;102121.91;6245666;22;19998;-80
2023/01/03 09:48:33;;;;;;;;;;;;;;;4.55;100.00;102126.13;6247147;22;19955;-77
2023/01/03 09:51:00;;;;;;;;;;;;;;;4.58;100.00;102127.16;6220952;22;19918;-77
2023/01/03 10:05:46;;;;;;;;;;;;;;;4.90;100.00;102106.75;6245964;22;19914;-79
2023/01/03 10:08:15;;;;;;;;;;;;;;;4.92;100.00;102105.09;6274153;22;19911;-78
2023/01/03 10:11:04;;;;;;;;;;;;;;;5.01;100.00;102103.69;6274332;22;20602;-78
2023/01/03 10:13:43;;;;;;;;;;;;;;;5.06;100.00;102102.13;6220840;22;19929;-77
2023/01/03 10:16:23;;;;;;;;;;;;;;;4.96;100.00;102104.38;6271959;22;19946;-77
2023/01/03 10:19:11;;;;;;;;;;;;;;;4.96;100.00;102108.69;6220617;22;19911;-80
2023/01/03 10:22:01;;;;;;;;;;;;;;;5.01;100.00;102103.69;6247418;22;19911;-77
2023/01/03 10:24:36;;;;;;;;;;;;;;;5.04;100.00;102101.19;6221304;22;19946;-78
2023/01/03 10:27:21;;;;;;;;;;;;;;;5.04;100.00;102096.88;6197481;22;20321;-78
2023/01/03 10:29:51;;;;;;;;;;;;;;;5.09;100.00;102097.06;6247019;22;19919;-78
2023/01/03 10:32:44;;;;;;;;;;;;;;;5.15;100.00;102097.28;6219706;22;19911;-77
2023/01/03 10:35:31;;;;;;;;;;;;;;;5.23;100.00;102094.97;6245758;22;20323;-79
2023/01/03 10:38:00;;;;;;;;;;;;;;;5.21;100.00;102081.91;6219316;22;19918;-78
2023/01/03 10:40:48;;;;;;;;;;;;;;;5.21;100.00;102074.13;6221646;22;20276;-79
2023/01/03 10:43:20;;;;;;;;;;;;;;;5.20;100.00;102079.28;6221843;22;19915;-78
2023/01/03 10:45:52;;;;;;;;;;;;;;;5.24;100.00;102071.66;6221261;22;19958;-80
2023/01/03 10:48:18;;;;;;;;;;;;;;;5.23;100.00;102064.69;6247359;22;19926;-78
2023/01/03 10:50:46;;;;;;;;;;;;;;;5.29;100.00;102066.63;6246496;22;20310;-77
2023/01/03 10:53:14;;;;;;;;;;;;;;;5.33;100.00;102072.81;6246380;22;19915;-77
2023/01/03 10:55:51;;;;;;;;;;;;;;;5.41;99.65;102071.34;6246023;22;19938;-78
2023/01/03 10:58:27;;;;;;;;;;;;;;;5.45;99.39;102079.31;6244792;22;19965;-80
2023/01/03 11:01:10;;;;;;;;;;;;;;;5.46;99.39;102075.00;6242842;22;19919;-80
2023/01/03 11:03:43;;;;;;;;;;;;;;;5.43;100.00;102067.13;6243503;22;19946;-77
2023/01/03 11:06:14;;;;;;;;;;;;;;;5.44;99.67;102069.75;6246424;22;19915;-79
2023/01/03 11:08:48;;;;;;;;;;;;;;;5.53;99.12;102068.31;6221193;22;19922;-79
2023/01/03 11:11:30;;;;;;;;;;;;;;;5.65;97.28;102065.28;6217204;22;19990;-82
2023/01/03 11:14:28;;;;;;;;;;;;;;;5.71;96.30;102060.25;6245177;22;19922;-78
2023/01/03 11:16:56;;;;;;;;;;;;;;;5.74;96.28;102063.84;6220256;22;19915;-78
2023/01/03 11:19:26;;;;;;;;;;;;;;;5.78;96.29;102060.50;6221080;22;19934;-79
2023/01/03 11:22:14;;;;;;;;;;;;;;;5.75;96.88;102055.22;6245191;22;19922;-79
2023/01/03 11:25:15;;;;;;;;;;;;;;;5.72;98.46;102046.44;6245412;22;19965;-78
2023/01/03 11:28:19;;;;;;;;;;;;;;;5.77;98.99;102045.75;6220691;22;20282;-78
2023/01/03 11:30:53;;;;;;;;;;;;;;;5.83;98.97;102041.59;6272466;22;19915;-77
2023/01/03 11:33:57;;;;;;;;;;;;;;;5.83;98.82;102039.00;6246519;22;19951;-77
2023/01/03 11:36:37;;;;;;;;;;;;;;;5.83;99.67;102044.19;6273992;22;19961;-80
2023/01/03 11:39:19;;;;;;;;;;;;;;;5.86;99.79;102039.97;6244686;22;19986;-77
2023/01/03 11:42:24;;;;;;;;;;;;;;;5.91;99.24;102034.94;6243929;22;19918;-77
2023/01/03 11:45:20;;;;;;;;;;;;;;;5.96;99.06;102033.38;6214251;22;19972;-77
2023/01/03 11:48:05;;;;;;;;;;;;;;;6.01;97.90;102021.44;6245348;22;19915;-77
2023/01/03 11:50:54;;;;;;;;;;;;;;;6.01;97.06;102016.25;6243933;22;19915;-80
2023/01/03 11:53:35;;;;;;;;;;;;;;;6.00;96.88;102021.38;6244510;22;19950;-80
2023/01/03 11:56:10;;;;;;;;;;;;;;;6.01;97.10;102015.34;6244496;22;19915;-80
2023/01/03 11:59:00;;;;;;;;;;;;;;;6.06;96.68;102021.59;6244741;22;19969;-77
2023/01/03 12:01:43;;;;;;;;;;;;;;;6.09;96.44;102014.78;6270214;22;19942;-77
2023/01/03 12:04:27;;;;;;;;;;;;;;;6.16;95.70;102014.97;6221447;22;19922;-77
2023/01/03 12:07:15;;;;;;;;;;;;;;;6.18;96.07;102014.19;6280131;22;19915;-78
2023/01/03 12:09:58;;;;;;;;;;;;;;;6.29;94.28;102004.97;6255487;22;19915;-78
2023/01/03 12:12:55;;;;;;;;;;;;;;;6.31;94.69;102005.03;6277805;22;19918;-77
2023/01/03 12:15:26;;;;;;;;;;;;;;;6.44;94.50;102012.38;6248785;22;19911;-79
2023/01/03 12:18:26;;;;;;;;;;;;;;;6.61;92.33;102007.66;6221143;22;20468;-77
2023/01/03 12:21:20;;;;;;;;;;;;;;;6.76;92.13;102007.22;6272397;22;19946;-78
2023/01/03 12:23:59;;;;;;;;;;;;;;;7.03;91.48;102002.75;6243164;22;19915;-78
2023/01/03 12:26:26;;;;;;;;;;;;;;;7.25;89.10;101999.88;6219141;22;20203;-78
2023/01/03 12:29:00;;;;;;;;;;;;;;;7.39;88.56;101997.66;6248910;22;19915;-78
2023/01/03 12:31:49;;;;;;;;;;;;;;;7.52;87.47;101996.25;6249115;22;19915;-78
2023/01/03 12:34:34;;;;;;;;;;;;;;;7.64;86.88;101989.53;6223122;22;19942;-78
2023/01/03 12:37:16;;;;;;;;;;;;;;;7.72;85.25;101975.00;6275342;22;19911;-80
2023/01/03 12:40:32;;;;;;;;;;;;;;;7.83;85.29;101978.72;6248835;22;19915;-77
2023/01/03 12:43:28;;;;;;;;;;;;;;;7.97;84.53;101973.84;6072970;23;19944;-77
2023/01/03 12:46:07;;;;;;;;;;;;;;;8.09;83.95;101965.41;6222113;22;19918;-79
2023/01/03 12:48:45;;;;;;;;;;;;;;;8.11;83.55;101963.72;6246410;22;19918;-78
2023/01/03 12:51:14;;;;;;;;;;;;;;;8.19;83.28;101963.91;6246319;22;19915;-78
2023/01/03 12:53:52;;;;;;;;;;;;;;;8.30;82.65;101958.91;6246301;22;19933;-78
2023/01/03 12:56:39;;;;;;;;;;;;;;;8.38;82.50;101960.84;6246703;22;19968;-77
2023/01/03 12:59:21;;;;;;;;;;;;;;;8.45;81.01;101961.84;6246045;22;19939;-80
2023/01/03 13:01:55;;;;;;;;;;;;;;;8.52;81.63;101960.28;6244655;22;19915;-80
2023/01/03 13:04:23;;;;;;;;;;;;;;;8.51;81.01;101967.19;6245392;22;19946;-78
2023/01/03 13:07:02;;;;;;;;;;;;;;;8.50;81.01;101962.84;6273166;22;20324;-77
2023/01/03 13:09:35;;;;;;;;;;;;;;;8.50;81.19;101955.03;6223178;22;19923;-78
2023/01/03 13:12:33;;;;;;;;;;;;;;;8.55;81.37;101952.50;6246427;22;19915;-77
2023/01/03 13:15:04;;;;;;;;;;;;;;;8.63;80.91;101950.94;6245560;22;19917;-78
2023/01/03 13:17:32;;;;;;;;;;;;;;;8.69;80.14;101947.56;6274036;22;20048;-78
2023/01/03 13:20:18;;;;;;;;;;;;;;;8.66;80.04;101945.78;6246856;22;20519;-78
2023/01/03 13:23:26;;;;;;;;;;;;;;;8.48;80.03;101941.06;6271823;22;19919;-78
2023/01/03 13:26:05;;;;;;;;;;;;;;;8.07;82.43;101938.41;6244765;22;19926;-78
2023/01/03 13:28:35;;;;;;;;;;;;;;;7.74;83.68;101944.63;6245282;22;19976;-77
2023/01/03 13:31:14;;;;;;;;;;;;;;;7.50;85.14;101943.19;6218714;22;19915;-77
2023/01/03 13:34:37;;;;;;;;;;;;;;;7.39;86.49;101949.84;6270469;22;19926;-78
2023/01/03 13:37:07;;;;;;;;;;;;;;;7.48;86.53;101938.78;6116411;23;19917;-80
2023/01/03 13:39:40;;;;;;;;;;;;;;;7.57;85.92;101942.50;6093676;23;19921;-78
2023/01/03 13:42:11;;;;;;;;;;;;;;;7.69;86.20;101941.91;6175069;22;19911;-78
2023/01/03 13:44:38;;;;;;;;;;;;;;;7.81;87.27;101936.09;6221442;22;19911;-77
2023/01/03 13:47:05;;;;;;;;;;;;;;;7.88;88.67;101938.00;6246624;22;19916;-78
2023/01/03 13:49:31;;;;;;;;;;;;;;;7.90;88.50;101941.53;6245972;22;20338;-79
2023/01/03 13:51:58;;;;;;;;;;;;;;;7.86;87.94;101938.81;6219418;22;19942;-80
2023/01/03 13:54:36;;;;;;;;;;;;;;;7.84;88.93;101936.16;6245613;22;19912;-78
2023/01/03 13:57:35;;;;;;;;;;;;;;;7.86;89.15;101944.03;6247624;22;19941;-78
2023/01/03 14:00:13;;;;;;;;;;;;;;;7.85;88.61;101935.34;6222156;22;19962;-77
2023/01/03 14:03:01;;;;;;;;;;;;;;;7.90;89.17;101938.03;6245717;22;20014;-78
2023/01/03 14:06:11;;;;;;;;;;;;;;;7.91;88.68;101935.47;6245577;22;19911;-79
2023/01/03 14:09:07;;;;;;;;;;;;;;;7.92;89.25;101932.00;6273070;22;19923;-77
2023/01/03 14:11:50;;;;;;;;;;;;;;;7.92;88.60;101937.22;6245497;22;20319;-77
2023/01/03 14:14:18;;;;;;;;;;;;;;;7.89;86.66;101938.91;6220641;22;19922;-78
2023/01/03 14:16:54;;;;;;;;;;;;;;;7.90;86.68;101943.25;6220767;22;19915;-77